Time;durP1;ratioP1;P1;durP2;ratioP2;P2;SDS_P1;SDS_P2;PMS_P1;PMS_P2;Temp;Humidity;BMP_temperature;BMP_pressure;BME280_temperature;BME280_humidity;BME280_pressure;Samples;Min_cycle;Max_cycle;Signal;HPM_P1;HPM_P2
2022/09/04 00:02:01;;;;;;;4.25;1.95;;;;;;;25.61;55.13;100846.69;4860171;29;20044;-63
2022/09/04 00:04:54;;;;;;;7.93;3.25;;;;;;;25.49;55.63;100848.81;4858421;29;20057;-63
2022/09/04 00:08:13;;;;;;;6.65;2.38;;;;;;;25.47;55.82;100847.63;4858133;29;20049;-62
2022/09/04 00:11:15;;;;;;;2.88;1.80;;;;;;;25.57;55.46;100860.69;4858796;29;20057;-63
2022/09/04 00:14:13;;;;;;;12.07;3.47;;;;;;;25.62;55.30;100851.06;4861152;29;20068;-63
2022/09/04 00:17:13;;;;;;;4.28;1.83;;;;;;;25.62;55.21;100856.66;4862193;29;20053;-63
2022/09/04 00:20:04;;;;;;;5.07;2.00;;;;;;;25.59;55.17;100860.28;4861976;29;20052;-62
2022/09/04 00:23:01;;;;;;;5.88;3.42;;;;;;;25.34;55.73;100850.16;4862027;29;20516;-62
2022/09/04 00:25:56;;;;;;;9.38;4.20;;;;;;;25.02;56.90;100852.41;4861806;29;20044;-63
2022/09/04 00:28:45;;;;;;;3.83;3.13;;;;;;;24.91;57.20;100851.72;4861447;29;20065;-61
2022/09/04 00:31:37;;;;;;;3.00;1.85;;;;;;;25.06;57.05;100853.97;4863050;29;20049;-63
2022/09/04 00:34:31;;;;;;;2.25;1.52;;;;;;;25.21;56.61;100853.84;4861931;29;20052;-63
2022/09/04 00:37:23;;;;;;;9.43;2.05;;;;;;;25.36;56.15;100849.72;4861449;29;20057;-63
2022/09/04 00:40:26;;;;;;;3.90;2.60;;;;;;;25.43;55.71;100853.22;4861573;29;20548;-63
2022/09/04 00:43:30;;;;;;;2.22;1.75;;;;;;;25.46;55.71;100860.75;4861801;29;20052;-63
2022/09/04 00:46:48;;;;;;;3.50;1.80;;;;;;;25.50;55.48;100855.94;4861582;29;20405;-63
2022/09/04 00:49:57;;;;;;;4.93;2.05;;;;;;;25.51;55.23;100863.09;4862335;29;20048;-63
2022/09/04 00:52:48;;;;;;;2.35;1.73;;;;;;;25.46;55.47;100860.75;4861541;29;20061;-63
2022/09/04 00:56:15;;;;;;;4.07;1.98;;;;;;;25.47;55.38;100856.75;4865202;29;20052;-63
2022/09/04 00:59:21;;;;;;;3.28;1.85;;;;;;;25.50;55.39;100860.69;4860545;29;20058;-62
2022/09/04 01:02:24;;;;;;;2.53;1.60;;;;;;;25.49;54.92;100865.50;4861147;29;20048;-63
2022/09/04 01:04:54;;;;;;;6.57;3.00;;;;;;;25.12;56.28;100862.66;4888650;23;20407;-80
2022/09/04 01:08:19;;;;;;;3.72;1.75;;;;;;;25.29;55.43;100858.16;4871986;29;20057;-81
2022/09/04 01:11:16;;;;;;;3.35;2.42;;;;;;;25.38;55.44;100867.59;4886142;29;20100;-80
2022/09/04 01:14:11;;;;;;;5.00;1.80;;;;;;;25.36;55.24;100867.22;4877403;29;20067;-81
2022/09/04 01:17:14;;;;;;;6.20;2.38;;;;;;;25.39;55.42;100874.75;4877308;29;20435;-80
2022/09/04 01:20:00;;;;;;;5.75;3.15;;;;;;;25.39;55.43;100876.75;4885598;29;20048;-80
2022/09/04 01:22:53;;;;;;;7.20;2.65;;;;;;;25.40;55.32;100873.53;4888219;29;20569;-80
2022/09/04 01:25:46;;;;;;;4.38;2.03;;;;;;;25.36;55.46;100883.91;4885770;29;20044;-80
2022/09/04 01:28:46;;;;;;;4.10;2.03;;;;;;;25.38;55.48;100881.53;4876087;29;20048;-80
2022/09/04 01:31:47;;;;;;;2.13;1.73;;;;;;;25.40;55.42;100887.47;4874924;29;20104;-80
2022/09/04 01:35:00;;;;;;;4.25;2.40;;;;;;;25.41;55.31;100885.47;4868707;29;20060;-80
2022/09/04 01:38:00;;;;;;;5.75;2.10;;;;;;;25.37;55.23;100893.84;4881166;29;20055;-80
2022/09/04 01:40:51;;;;;;;7.70;1.92;;;;;;;25.39;55.06;100902.59;4885604;29;20411;-80
2022/09/04 01:43:35;;;;;;;2.85;1.92;;;;;;;25.35;55.33;100896.25;4885567;29;20052;-80
2022/09/04 01:46:48;;;;;;;6.72;2.05;;;;;;;25.40;54.97;100901.38;4885324;29;20633;-79
2022/09/04 01:49:42;;;;;;;2.72;1.98;;;;;;;25.37;55.03;100902.22;4884998;29;20406;-80
2022/09/04 01:53:10;;;;;;;5.53;1.80;;;;;;;25.39;55.27;100902.59;4885489;29;20056;-80
2022/09/04 01:56:03;;;;;;;2.65;1.52;;;;;;;25.40;55.13;100911.72;4879190;29;20057;-79
2022/09/04 01:58:55;;;;;;;7.18;2.13;;;;;;;25.39;55.14;100910.97;4877125;29;20053;-81
2022/09/04 02:02:08;;;;;;;3.75;2.10;;;;;;;25.36;55.08;100917.34;4876976;29;20044;-80
2022/09/04 02:05:14;;;;;;;3.67;2.00;;;;;;;25.31;55.27;100919.75;4874875;29;20415;-80
2022/09/04 02:08:21;;;;;;;9.98;2.70;;;;;;;25.01;56.06;100920.41;4884892;29;20565;-80
2022/09/04 02:11:15;;;;;;;4.05;2.35;;;;;;;24.98;56.46;100915.66;4885221;29;20052;-79
2022/09/04 02:14:26;;;;;;;3.38;2.53;;;;;;;24.97;56.44;100916.84;4873727;29;20061;-81
2022/09/04 02:17:35;;;;;;;4.03;3.00;;;;;;;24.83;56.80;100923.28;4862816;29;20057;-81
2022/09/04 02:20:27;;;;;;;5.35;2.63;;;;;;;24.60;57.77;100926.59;4870459;29;20039;-81
2022/09/04 02:23:37;;;;;;;6.95;2.85;;;;;;;24.71;57.37;100923.75;4881957;29;20071;-81
2022/09/04 02:26:34;;;;;;;2.03;1.58;;;;;;;24.89;57.04;100927.22;4882012;29;20076;-81
2022/09/04 02:29:32;;;;;;;2.03;1.48;;;;;;;25.00;56.45;100921.59;4884546;29;20052;-81
2022/09/04 02:32:22;;;;;;;6.03;2.45;;;;;;;25.08;56.35;100921.16;4881615;29;20048;-81
2022/09/04 02:35:13;;;;;;;7.93;2.03;;;;;;;25.18;55.94;100925.06;4881467;29;20068;-81
2022/09/04 02:37:57;;;;;;;4.38;1.50;;;;;;;25.18;55.79;100924.25;4883944;29;20114;-82
2022/09/04 02:40:54;;;;;;;;;;;;;;;25.25;55.86;100921.41;4883040;29;20069;-82
2022/09/04 02:43:45;;;;;;;1.92;1.50;;;;;;;25.26;55.56;100923.00;4870824;29;19916;-81
2022/09/04 02:46:48;;;;;;;6.85;1.85;;;;;;;25.27;55.35;100921.78;4878037;29;20122;-82
2022/09/04 02:49:35;;;;;;;3.00;1.63;;;;;;;25.25;55.54;100930.53;4881801;29;20072;-81
2022/09/04 02:52:50;;;;;;;1.73;1.33;;;;;;;25.29;55.50;100924.97;4878174;29;20527;-81
2022/09/04 02:55:55;;;;;;;5.93;1.67;;;;;;;25.29;55.66;100922.19;4867706;29;20056;-81
2022/09/04 02:59:11;;;;;;;3.90;1.33;;;;;;;25.20;55.61;100908.72;4843650;29;20057;-82
2022/09/04 03:02:00;;;;;;;2.42;1.80;;;;;;;25.26;55.66;100912.66;4869912;29;20088;-82
2022/09/04 03:05:03;;;;;;;4.32;1.85;;;;;;;25.30;55.69;100912.59;4874676;29;20052;-82
2022/09/04 03:07:53;;;;;;;2.47;1.50;;;;;;;25.28;55.72;100909.47;4869644;29;20076;-81
2022/09/04 03:10:48;;;;;;;3.47;1.40;;;;;;;25.27;55.43;100908.66;4870447;29;20367;-80
2022/09/04 03:13:45;;;;;;;7.93;1.70;;;;;;;25.27;55.47;100911.44;4872753;29;20427;-81
2022/09/04 03:16:42;;;;;;;2.75;1.60;;;;;;;25.26;55.43;100912.66;4882203;29;20052;-81
2022/09/04 03:19:50;;;;;;;2.00;1.65;;;;;;;25.27;55.52;100905.09;4885941;29;20061;-80
2022/09/04 03:22:44;;;;;;;4.00;1.70;;;;;;;25.27;55.60;100905.88;4882784;29;20064;-80
2022/09/04 03:25:48;;;;;;;1.77;1.50;;;;;;;25.27;55.65;100905.88;4882867;29;20052;-80
2022/09/04 03:29:00;;;;;;;2.95;1.65;;;;;;;25.28;55.64;100907.47;4882485;29;20115;-81
2022/09/04 03:32:16;;;;;;;3.90;1.55;;;;;;;25.27;55.40;100905.88;4886345;29;20048;-81
2022/09/04 03:35:09;;;;;;;2.55;1.42;;;;;;;25.22;55.62;100903.53;4882787;29;20060;-80
2022/09/04 03:38:11;;;;;;;4.07;1.63;;;;;;;25.24;55.61;100909.50;4868697;29;20040;-80
2022/09/04 03:41:36;;;;;;;4.18;1.63;;;;;;;25.22;55.66;100905.53;4892435;29;20094;-81
2022/09/04 03:44:21;;;;;;;3.15;2.15;;;;;;;25.00;56.11;100905.69;4877126;29;20537;-79
2022/09/04 03:47:25;;;;;;;6.07;2.05;;;;;;;24.78;57.11;100889.53;4880575;29;20426;-80
2022/09/04 03:50:21;;;;;;;5.28;1.45;;;;;;;24.91;56.60;100907.34;4890993;29;20115;-81
2022/09/04 03:53:31;;;;;;;6.65;2.63;;;;;;;24.98;56.25;100904.53;4892962;29;20056;-81
2022/09/04 03:56:25;;;;;;;2.38;1.77;;;;;;;24.94;56.47;100903.78;4888214;29;20044;-81
2022/09/04 03:59:34;;;;;;;7.75;2.80;;;;;;;24.51;57.84;100895.66;4879468;29;20519;-80
2022/09/04 04:02:43;;;;;;;4.13;3.00;;;;;;;24.55;57.80;100898.41;4850982;29;20049;-81
2022/09/04 04:06:05;;;;;;;5.00;3.17;;;;;;;24.52;58.02;100907.56;4851606;29;20419;-80
2022/09/04 04:09:10;;;;;;;4.15;2.10;;;;;;;24.58;57.94;100911.53;4850926;29;20056;-81
2022/09/04 04:12:30;;;;;;;5.00;2.85;;;;;;;24.04;59.49;100905.34;4850887;29;20057;-81
2022/09/04 04:15:49;;;;;;;9.45;2.83;;;;;;;23.98;59.54;100898.63;4863403;29;20045;-81
2022/09/04 04:18:45;;;;;;;2.72;2.50;;;;;;;24.18;58.89;100910.09;4876130;29;20053;-81
2022/09/04 04:22:02;;;;;;;6.63;3.00;;;;;;;24.19;58.59;100925.56;4873762;29;20048;-81
2022/09/04 04:24:53;;;;;;;2.85;1.90;;;;;;;24.20;59.24;100925.19;4869460;29;20352;-80
2022/09/04 04:27:59;;;;;;;3.53;2.63;;;;;;;24.42;58.44;100930.66;4868542;29;20052;-81
2022/09/04 04:30:53;;;;;;;2.55;1.55;;;;;;;24.54;57.83;100928.19;4871105;29;20061;-81
2022/09/04 04:34:09;;;;;;;3.10;1.60;;;;;;;24.66;57.86;100924.97;4880406;29;20056;-81
2022/09/04 04:37:07;;;;;;;3.67;2.08;;;;;;;24.75;57.17;100934.84;4890226;29;20170;-81
2022/09/04 04:40:03;;;;;;;2.78;2.22;;;;;;;24.59;57.08;100947.25;4887730;29;20538;-80
2022/09/04 04:43:04;;;;;;;11.27;3.05;;;;;;;24.50;57.40;100955.25;4888483;29;20047;-81
2022/09/04 04:46:25;;;;;;;5.13;2.92;;;;;;;23.68;60.01;100946.31;4882157;29;20431;-81
2022/09/04 04:49:13;;;;;;;4.25;1.70;;;;;;;24.24;58.69;100944.63;4880166;29;20052;-80
2022/09/04 04:52:14;;;;;;;4.68;1.70;;;;;;;24.30;58.23;100951.34;4880633;29;20057;-81
2022/09/04 04:55:11;;;;;;;5.68;2.80;;;;;;;24.14;57.77;100959.31;4888456;29;20048;-81
2022/09/04 04:57:59;;;;;;;3.75;1.77;;;;;;;24.36;57.93;100957.28;4878785;29;20057;-80
2022/09/04 05:01:16;;;;;;;8.63;2.78;;;;;;;23.82;58.76;100957.41;4868890;29;20452;-79
2022/09/04 05:04:39;;;;;;;2.80;1.55;;;;;;;24.09;59.04;100968.06;4873144;29;20048;-81
2022/09/04 05:07:45;;;;;;;7.10;3.22;;;;;;;23.78;59.40;100981.59;4863963;29;20053;-81
2022/09/04 05:10:54;;;;;;;12.88;4.13;;;;;;;23.34;61.30;100983.97;4869229;29;20045;-81
2022/09/04 05:14:14;;;;;;;6.00;4.10;;;;;;;23.12;62.43;100990.66;4888002;29;20045;-84
2022/09/04 05:17:39;;;;;;;8.23;3.70;;;;;;;22.99;63.06;100991.06;4867437;29;20052;-83
2022/09/04 05:20:40;;;;;;;47.22;12.27;;;;;;;22.88;63.93;100997.75;4871961;29;20057;-83
2022/09/04 05:23:35;;;;;;;116.93;22.83;;;;;;;23.47;61.98;100992.75;4866456;29;20419;-80
2022/09/04 05:26:38;;;;;;;40.60;8.70;;;;;;;23.79;60.79;101002.66;4866409;29;20049;-82
2022/09/04 05:29:33;;;;;;;13.18;5.10;;;;;;;24.06;59.54;101013.34;4867382;29;20052;-81
2022/09/04 05:32:42;;;;;;;13.38;3.30;;;;;;;24.22;59.00;101010.94;4866129;29;20052;-80
2022/09/04 05:36:01;;;;;;;10.65;2.55;;;;;;;24.31;58.60;101013.31;4867339;29;20053;-80
2022/09/04 05:39:04;;;;;;;11.07;2.90;;;;;;;24.37;58.43;101026.41;4866128;29;20534;-80
2022/09/04 05:41:49;;;;;;;6.30;3.97;;;;;;;23.81;60.19;101019.72;4867886;29;20041;-81
2022/09/04 05:44:36;;;;;;;6.30;3.42;;;;;;;24.06;59.63;101024.44;4866351;29;20052;-81
2022/09/04 05:47:40;;;;;;;8.52;4.20;;;;;;;23.79;61.01;101021.28;4865382;29;20052;-78
2022/09/04 05:50:25;;;;;;;10.32;4.65;;;;;;;23.50;61.78;101020.50;4865670;29;20048;-83
2022/09/04 05:53:15;;;;;;;;;;;;;;;23.30;63.08;101022.84;4866272;29;20641;-82
2022/09/04 05:56:34;;;;;;;14.65;5.30;;;;;;;23.23;63.27;101024.78;4866233;29;19920;-83
2022/09/04 05:59:41;;;;;;;8.85;4.57;;;;;;;23.29;63.20;101037.09;4872067;29;20041;-83
2022/09/04 06:02:44;;;;;;;9.48;5.07;;;;;;;22.88;64.99;101042.13;4848059;29;20048;-84
2022/09/04 06:06:00;;;;;;;7.68;3.67;;;;;;;23.46;62.68;101038.34;4862703;29;20048;-84
2022/09/04 06:09:15;;;;;;;9.82;5.28;;;;;;;23.28;63.44;101049.38;4884198;29;20073;-85
2022/09/04 06:12:06;;;;;;;7.43;5.20;;;;;;;23.01;64.52;101055.25;4884516;29;20040;-85
2022/09/04 06:14:56;;;;;;;10.70;4.95;;;;;;;23.15;64.50;101054.50;4893489;29;20056;-86
2022/09/04 06:18:07;;;;;;;12.95;8.85;;;;;;;23.03;64.35;101052.88;4889729;29;20048;-84
2022/09/04 06:21:07;;;;;;;8.93;4.47;;;;;;;23.06;64.47;101058.84;4886636;29;20229;-84
2022/09/04 06:24:14;;;;;;;7.28;5.55;;;;;;;23.18;63.34;101052.91;4863354;29;20052;-83
2022/09/04 06:27:04;;;;;;;7.30;4.65;;;;;;;23.21;63.23;101049.38;4876158;29;20044;-83
2022/09/04 06:30:01;;;;;;;6.15;4.70;;;;;;;23.54;61.62;101051.84;4868951;29;20052;-84
2022/09/04 06:33:24;;;;;;;8.10;4.38;;;;;;;23.75;61.89;101060.19;4870265;29;20049;-84
2022/09/04 06:36:34;;;;;;;6.43;3.80;;;;;;;23.72;61.61;101060.97;4876601;29;20060;-84
2022/09/04 06:39:30;;;;;;;11.93;5.22;;;;;;;23.68;61.48;101053.81;4867932;29;20539;-83
2022/09/04 06:42:25;;;;;;;8.02;4.10;;;;;;;23.97;60.82;101051.84;4855702;29;20040;-83
2022/09/04 06:45:28;;;;;;;5.57;4.07;;;;;;;24.15;60.51;101056.19;4865702;29;20048;-83
2022/09/04 06:48:28;;;;;;;7.93;4.10;;;;;;;24.23;60.35;101056.97;4864673;29;20052;-83
2022/09/04 06:51:31;;;;;;;10.00;4.40;;;;;;;24.25;60.28;101063.75;4864601;29;20550;-83
2022/09/04 06:54:54;;;;;;;9.45;4.05;;;;;;;24.28;60.38;101071.28;4865710;29;20060;-84
2022/09/04 06:58:06;;;;;;;9.65;4.15;;;;;;;24.37;59.88;101067.31;4865045;29;20060;-84
2022/09/04 07:01:07;;;;;;;11.05;4.50;;;;;;;24.34;59.73;101066.09;4864542;29;20052;-84
2022/09/04 07:04:04;;;;;;;10.35;3.70;;;;;;;24.36;59.58;101065.72;4890818;23;20048;-59
2022/09/04 07:07:14;;;;;;;14.90;5.28;;;;;;;24.45;58.60;101077.19;4884913;29;20057;-62
2022/09/04 07:10:08;;;;;;;9.82;3.83;;;;;;;24.41;58.93;101074.44;4858204;29;20053;-63
2022/09/04 07:13:25;;;;;;;7.50;3.10;;;;;;;24.43;58.68;101072.03;4860220;29;20402;-62
2022/09/04 07:16:44;;;;;;;4.88;3.67;;;;;;;24.55;58.44;101074.41;4864110;29;20619;-61
2022/09/04 07:19:37;;;;;;;10.68;3.95;;;;;;;24.58;58.30;101070.81;4869091;29;20048;-61
2022/09/04 07:22:56;;;;;;;5.47;4.45;;;;;;;24.56;58.05;101078.78;4840106;29;20042;-61
2022/09/04 07:26:37;;;;;;;10.27;5.30;;;;;;;24.69;57.27;101091.03;4840744;29;20521;-60
2022/09/04 07:29:49;;;;;;;7.20;4.22;;;;;;;24.61;57.36;101097.81;4840947;29;20494;-61
2022/09/04 07:32:56;;;;;;;5.80;4.53;;;;;;;24.85;56.89;101098.13;4841204;29;20053;-60
2022/09/04 07:35:49;;;;;;;12.77;5.47;;;;;;;24.69;57.44;101095.81;4840590;29;20525;-60
2022/09/04 07:38:49;;;;;;;9.48;4.60;;;;;;;24.57;57.74;101104.59;4840373;29;20068;-61
2022/09/04 07:41:41;;;;;;;8.40;4.70;;;;;;;24.52;57.83;101102.22;4840338;29;20053;-61
2022/09/04 07:44:46;;;;;;;5.88;4.20;;;;;;;24.51;57.55;101098.66;4854679;29;20045;-59
2022/09/04 07:47:48;;;;;;;5.05;4.07;;;;;;;24.56;57.61;101105.78;4839096;29;20053;-61
2022/09/04 07:50:44;;;;;;;6.70;3.60;;;;;;;24.51;57.82;101107.00;4842167;29;20521;-61
2022/09/04 07:53:32;;;;;;;7.30;4.55;;;;;;;24.61;57.15;101106.16;4840186;29;20053;-61
2022/09/04 07:56:41;;;;;;;5.47;3.75;;;;;;;24.61;57.26;101117.28;4856255;29;20152;-61
2022/09/04 08:00:00;;;;;;;5.22;4.10;;;;;;;24.92;56.95;101114.84;4840294;29;20057;-61
2022/09/04 08:03:00;;;;;;;7.13;4.15;;;;;;;24.98;56.87;101122.38;4842250;29;20045;-60
2022/09/04 08:06:23;;;;;;;11.05;4.00;;;;;;;25.16;55.99;101115.94;4841391;29;20053;-60
2022/09/04 08:09:40;;;;;;;8.63;3.85;;;;;;;25.12;56.16;101121.53;4841700;29;20049;-61
2022/09/04 08:12:58;;;;;;;7.50;4.20;;;;;;;25.44;55.04;101133.31;4840200;29;20049;-60
2022/09/04 08:15:56;;;;;;;9.15;4.97;;;;;;;25.40;55.35;101132.50;4841967;29;20177;-60
2022/09/04 08:18:53;;;;;;;6.63;3.22;;;;;;;25.16;55.95;101141.78;4842817;29;20057;-60
2022/09/04 08:21:47;;;;;;;14.00;5.28;;;;;;;25.43;55.66;101139.28;4855654;29;20161;-60
2022/09/04 08:24:44;;;;;;;4.07;3.40;;;;;;;25.34;55.67;101145.28;4840793;29;20050;-61
2022/09/04 08:27:50;;;;;;;6.70;3.90;;;;;;;25.51;55.23;101155.53;4839720;29;20053;-61
2022/09/04 08:30:48;;;;;;;5.75;3.67;;;;;;;25.36;55.51;101156.81;4850658;29;20057;-61
2022/09/04 08:33:43;;;;;;;5.13;3.20;;;;;;;25.08;56.35;101154.16;4845537;29;20061;-62
2022/09/04 08:36:57;;;;;;;9.73;3.85;;;;;;;25.16;56.32;101161.25;4843468;29;20057;-62
2022/09/04 08:40:19;;;;;;;7.78;3.85;;;;;;;25.19;56.12;101157.69;4843278;29;20053;-63
2022/09/04 08:43:23;;;;;;;5.65;3.80;;;;;;;25.17;56.00;101148.94;4843291;29;20056;-63
2022/09/04 08:46:14;;;;;;;7.60;4.78;;;;;;;25.23;56.48;101160.44;4843318;29;20053;-61
2022/09/04 08:49:20;;;;;;;8.05;3.67;;;;;;;25.40;55.93;101163.13;4843005;29;20098;-63
2022/09/04 08:52:33;;;;;;;9.95;4.15;;;;;;;25.46;55.63;101155.94;4843375;29;20068;-61
2022/09/04 08:55:49;;;;;;;7.00;4.53;;;;;;;25.61;56.27;101142.75;4844817;29;20053;-61
2022/09/04 08:58:55;;;;;;;7.25;4.07;;;;;;;25.72;55.26;101148.28;4861922;29;20051;-61
2022/09/04 09:02:02;;;;;;;8.20;5.13;;;;;;;25.77;55.36;101151.41;4880374;29;20131;-63
2022/09/04 09:05:17;;;;;;;13.27;5.57;;;;;;;25.72;55.36;101157.44;4882255;29;20052;-62
2022/09/04 09:08:35;;;;;;;6.15;4.20;;;;;;;25.73;55.55;101149.88;4872086;29;20057;-61
2022/09/04 09:11:20;;;;;;;26.25;7.15;;;;;;;26.13;54.39;101145.59;4869977;29;20068;-61
2022/09/04 09:14:17;;;;;;;6.00;4.38;;;;;;;26.26;53.65;101155.84;4858520;29;20045;-61
2022/09/04 09:17:11;;;;;;;7.15;5.43;;;;;;;26.50;52.48;101162.41;4879238;29;20524;-62
2022/09/04 09:20:05;;;;;;;8.13;3.58;;;;;;;26.46;52.64;101158.09;4868925;29;20056;-62
2022/09/04 09:23:18;;;;;;;5.78;4.20;;;;;;;26.38;53.03;101166.50;4862147;29;20053;-63
2022/09/04 09:26:22;;;;;;;5.57;3.78;;;;;;;26.03;54.87;101165.97;4866631;29;20072;-62
2022/09/04 09:29:47;;;;;;;7.97;5.07;;;;;;;26.03;54.69;101166.75;4877226;29;20044;-63
2022/09/04 09:33:03;;;;;;;7.57;5.55;;;;;;;26.34;54.18;101160.16;4850981;29;20052;-60
2022/09/04 09:36:19;;;;;;;8.25;5.50;;;;;;;26.04;54.49;101159.19;4876720;29;20703;-61
2022/09/04 09:39:34;;;;;;;8.38;5.15;;;;;;;25.90;54.85;101157.31;4860655;29;20076;-62
2022/09/04 09:42:22;;;;;;;6.63;4.90;;;;;;;26.38;53.73;101160.94;4859527;29;20501;-62
2022/09/04 09:45:18;;;;;;;7.25;4.85;;;;;;;26.53;53.54;101166.38;4851732;29;20517;-62
2022/09/04 09:48:26;;;;;;;9.90;5.57;;;;;;;26.58;52.62;101157.53;4857388;29;20521;-62
2022/09/04 09:51:45;;;;;;;6.30;4.35;;;;;;;26.16;54.29;101153.91;4855642;29;20169;-63
2022/09/04 09:54:42;;;;;;;9.00;5.72;;;;;;;26.11;54.45;101157.13;4856625;29;20064;-62
2022/09/04 09:57:46;;;;;;;9.85;5.72;;;;;;;25.92;54.93;101166.03;4859979;29;20056;-63
2022/09/04 10:00:59;;;;;;;8.30;5.95;;;;;;;26.11;54.39;101159.91;4859565;29;20044;-62
2022/09/04 10:04:10;;;;;;;12.55;6.68;;;;;;;26.54;52.89;101162.38;4853968;29;20056;-61
2022/09/04 10:07:17;;;;;;;7.45;4.82;;;;;;;26.65;52.25;101163.06;4860560;29;20045;-61
2022/09/04 10:10:17;;;;;;;12.02;6.40;;;;;;;26.88;52.43;101165.22;4852654;29;20053;-63
2022/09/04 10:13:26;;;;;;;9.75;5.78;;;;;;;26.85;51.76;101166.03;4845632;29;20044;-61
2022/09/04 10:16:26;;;;;;;5.53;3.83;;;;;;;26.59;52.14;101159.94;4871164;29;20056;-61
2022/09/04 10:19:37;;;;;;;7.10;5.07;;;;;;;26.19;53.33;101147.53;4858720;29;20049;-63
2022/09/04 10:22:31;;;;;;;7.05;4.80;;;;;;;26.01;53.75;101146.84;4859861;29;20048;-61
2022/09/04 10:25:54;;;;;;;7.25;4.38;;;;;;;26.02;54.43;101150.44;4859816;29;20097;-60
2022/09/04 10:29:09;;;;;;;6.05;4.00;;;;;;;26.31;52.76;101141.47;4862262;29;20422;-61
2022/09/04 10:32:37;;;;;;;9.57;5.30;;;;;;;26.66;52.16;101142.34;4859263;29;20052;-63
2022/09/04 10:35:23;;;;;;;4.72;4.30;;;;;;;26.10;53.69;101135.25;4863849;29;20060;-62
2022/09/04 10:38:37;;;;;;;9.07;4.65;;;;;;;26.07;53.66;101136.06;4839253;29;20069;-63
2022/09/04 10:41:37;;;;;;;7.30;6.00;;;;;;;26.39;52.59;101150.56;4859886;29;20056;-62
2022/09/04 10:44:25;;;;;;;11.80;4.15;;;;;;;26.48;51.73;101142.50;4859300;29;20068;-61
2022/09/04 10:47:19;;;;;;;6.28;4.47;;;;;;;26.15;53.10;101141.19;4855734;29;20057;-63
2022/09/04 10:50:16;;;;;;;12.23;4.90;;;;;;;26.65;51.40;101149.91;4862504;29;20590;-63
2022/09/04 10:53:35;;;;;;;4.90;3.47;;;;;;;26.77;50.62;101143.78;4852632;29;20045;-62
2022/09/04 10:56:20;;;;;;;5.78;3.38;;;;;;;26.15;52.59;101143.19;4853157;29;20060;-62
2022/09/04 10:59:40;;;;;;;7.55;3.88;;;;;;;26.53;51.86;101138.47;4849423;29;20057;-62
2022/09/04 11:02:37;;;;;;;6.03;4.82;;;;;;;26.43;52.76;101131.00;4850248;29;20053;-61
2022/09/04 11:05:27;;;;;;;11.45;6.85;;;;;;;26.88;50.67;101140.91;4855057;29;20056;-63
2022/09/04 11:08:27;;;;;;;5.90;4.07;;;;;;;26.64;51.26;101133.56;4858910;29;20068;-61
2022/09/04 11:11:51;;;;;;;7.18;5.20;;;;;;;26.83;51.08;101135.75;4859235;29;20048;-61
2022/09/04 11:15:15;;;;;;;5.50;3.13;;;;;;;26.68;50.91;101123.97;4849120;29;20482;-62
2022/09/04 11:18:39;;;;;;;7.38;3.78;;;;;;;26.47;51.62;101123.38;4854984;29;20052;-63
2022/09/04 11:21:42;;;;;;;4.35;3.75;;;;;;;26.36;51.91;101117.94;4856010;29;20048;-61
2022/09/04 11:24:49;;;;;;;7.13;4.05;;;;;;;26.32;51.93;101117.16;4844946;29;20056;-63
2022/09/04 11:27:52;;;;;;;7.68;4.32;;;;;;;26.70;50.22;101112.38;4842874;29;20100;-63
2022/09/04 11:31:02;;;;;;;8.95;5.28;;;;;;;27.03;48.84;101121.97;4871815;29;20056;-61
2022/09/04 11:34:05;;;;;;;4.45;3.28;;;;;;;26.97;49.65;101120.88;4877145;29;20049;-62
2022/09/04 11:37:21;;;;;;;9.20;3.92;;;;;;;26.52;50.51;101114.56;4874225;29;20416;-61
2022/09/04 11:40:24;;;;;;;7.05;3.55;;;;;;;26.97;49.91;101113.28;4839490;29;20037;-62
2022/09/04 11:43:48;;;;;;;7.57;3.45;;;;;;;26.86;50.61;101109.03;4848040;29;20045;-63
2022/09/04 11:46:39;;;;;;;11.07;5.32;;;;;;;27.44;48.54;101107.88;4844367;29;20048;-60
2022/09/04 11:49:39;;;;;;;8.43;5.25;;;;;;;26.91;50.18;101108.59;4859596;29;20512;-63
2022/09/04 11:52:52;;;;;;;5.00;4.25;;;;;;;27.40;48.29;101101.53;4860332;29;20044;-61
2022/09/04 11:55:49;;;;;;;7.00;4.35;;;;;;;27.74;47.11;101099.44;4850343;29;20521;-61
2022/09/04 11:58:59;;;;;;;4.65;3.05;;;;;;;26.77;49.79;101115.06;4860663;29;20048;-62
2022/09/04 12:02:22;;;;;;;5.32;4.32;;;;;;;26.64;50.20;101108.47;4858592;29;20056;-63
2022/09/04 12:05:38;;;;;;;4.35;3.33;;;;;;;26.49;50.67;101107.03;4852173;29;20129;-61
2022/09/04 12:08:45;;;;;;;5.38;2.83;;;;;;;26.49;50.75;101104.25;4871883;29;20048;-60
2022/09/04 12:11:51;;;;;;;6.13;3.13;;;;;;;26.29;51.30;101113.22;4881617;29;20071;-62
2022/09/04 12:14:39;;;;;;;4.82;3.60;;;;;;;26.26;50.84;101108.44;4871354;29;20064;-62
2022/09/04 12:17:55;;;;;;;5.07;3.20;;;;;;;26.42;50.06;101113.47;4858448;29;20056;-62
2022/09/04 12:21:03;;;;;;;5.07;3.20;;;;;;;26.56;50.26;101102.19;4862068;29;20053;-63
2022/09/04 12:23:57;;;;;;;8.80;3.08;;;;;;;26.75;49.71;101106.34;4867988;29;20542;-61
2022/09/04 12:27:30;;;;;;;5.07;2.72;;;;;;;26.90;49.72;101096.63;4865363;29;20056;-62
2022/09/04 12:30:26;;;;;;;7.07;3.60;;;;;;;27.18;48.80;101101.03;4855952;29;20044;-63
2022/09/04 12:33:39;;;;;;;10.73;4.47;;;;;;;27.34;48.00;101094.84;4861692;29;20049;-63
2022/09/04 12:36:42;;;;;;;4.80;3.30;;;;;;;26.59;49.71;101097.75;4857378;29;20045;-61
2022/09/04 12:39:36;;;;;;;11.63;3.15;;;;;;;26.69;49.60;101096.84;4858654;29;20068;-60
2022/09/04 12:42:38;;;;;;;3.67;2.72;;;;;;;26.87;48.91;101086.28;4867236;29;20045;-61
2022/09/04 12:45:29;;;;;;;5.22;3.20;;;;;;;27.13;47.57;101081.97;4879867;29;20071;-63
2022/09/04 12:48:45;;;;;;;3.58;2.50;;;;;;;27.45;47.49;101084.31;4882977;29;20047;-62
2022/09/04 12:51:47;;;;;;;6.07;2.75;;;;;;;27.09;48.63;101092.38;4843073;29;20092;-63
2022/09/04 12:54:53;;;;;;;14.95;3.65;;;;;;;26.72;49.50;101084.84;4869887;29;20052;-63
2022/09/04 12:58:08;;;;;;;3.38;2.35;;;;;;;26.73;49.35;101086.44;4879566;29;20057;-61
2022/09/04 13:01:16;;;;;;;6.38;2.92;;;;;;;26.55;49.97;101074.69;4878414;29;20052;-60
2022/09/04 13:04:21;;;;;;;3.05;2.35;;;;;;;26.50;50.51;101083.50;4870221;23;20056;-87
2022/09/04 13:07:30;;;;;;;5.93;2.97;;;;;;;26.59;50.44;101076.22;4899006;29;20052;-85
2022/09/04 13:10:25;;;;;;;3.15;2.28;;;;;;;26.67;50.28;101077.72;4910228;29;20052;-86
2022/09/04 13:13:28;;;;;;;4.68;2.97;;;;;;;26.72;50.24;101082.03;4909313;29;20056;-84
2022/09/04 13:16:32;;;;;;;7.13;2.65;;;;;;;26.47;50.69;101079.53;4894723;29;20061;-86
2022/09/04 13:19:51;;;;;;;5.90;3.35;;;;;;;27.20;49.03;101071.50;4896109;29;20115;-85
2022/09/04 13:23:03;;;;;;;8.60;3.00;;;;;;;27.14;48.93;101072.38;4878192;29;20526;-86
2022/09/04 13:26:28;;;;;;;4.13;2.58;;;;;;;27.19;49.57;101074.69;4861862;29;20044;-83
2022/09/04 13:29:23;;;;;;;7.25;3.70;;;;;;;27.58;46.98;101063.75;4874526;29;20068;-86
2022/09/04 13:32:14;;;;;;;;;;;;;;;27.74;47.44;101076.28;4880292;29;20052;-85
2022/09/04 13:35:32;;;;;;;9.95;3.33;;;;;;;27.69;47.29;101074.78;4872511;29;19916;-88
2022/09/04 13:38:36;;;;;;;12.57;2.90;;;;;;;27.63;47.75;101068.13;4873423;29;20053;-86
2022/09/04 13:41:33;;;;;;;4.65;3.05;;;;;;;28.00;47.23;101078.25;4858765;29;20057;-85
2022/09/04 13:44:55;;;;;;;8.75;3.10;;;;;;;27.75;47.68;101075.09;4876717;29;20629;-85
2022/09/04 13:47:48;;;;;;;18.50;3.33;;;;;;;27.00;49.48;101067.00;4875937;29;20052;-85
2022/09/04 13:50:47;;;;;;;8.32;3.00;;;;;;;27.02;50.01;101067.38;4887026;29;20045;-85
2022/09/04 13:53:46;;;;;;;8.10;3.17;;;;;;;26.83;51.05;101075.13;4877711;29;20052;-84
2022/09/04 13:56:38;;;;;;;6.68;3.03;;;;;;;26.95;50.46;101071.03;4875775;29;20044;-85
2022/09/04 13:59:24;;;;;;;8.95;3.50;;;;;;;27.38;48.10;101076.81;4892842;29;20057;-85
2022/09/04 14:02:13;;;;;;;7.07;3.97;;;;;;;27.33;49.18;101071.69;4877763;29;20044;-84
2022/09/04 14:05:06;;;;;;;12.68;4.75;;;;;;;26.91;49.94;101072.31;4880630;29;20044;-85
2022/09/04 14:08:03;;;;;;;17.50;6.07;;;;;;;27.07;49.43;101075.28;4872753;29;20040;-85
2022/09/04 14:11:09;;;;;;;11.80;4.55;;;;;;;26.79;50.28;101074.41;4862852;29;20054;-85
2022/09/04 14:14:10;;;;;;;8.55;3.80;;;;;;;27.14;49.18;101075.97;4879075;29;20044;-85